Time;durP1;ratioP1;P1;durP2;ratioP2;P2;SDS_P1;SDS_P2;PMS_P1;PMS_P2;Temp;Humidity;BMP_temperature;BMP_pressure;BME280_temperature;BME280_humidity;BME280_pressure;Samples;Min_cycle;Max_cycle;Signal;HPM_P1;HPM_P2
2022/06/14 00:03:01;;;;;;;13.68;2.95;;;;;;;14.11;90.68;101959.69;5058570;28;20124;-73
2022/06/14 00:05:28;;;;;;;9.32;2.85;;;;;;;14.08;90.82;101963.28;5056866;28;20084;-75
2022/06/14 00:07:54;;;;;;;8.90;2.95;;;;;;;14.07;92.92;101953.31;5058808;28;20142;-74
2022/06/14 00:10:21;;;;;;;11.63;3.22;;;;;;;14.09;92.28;101953.72;5053991;28;20046;-74
2022/06/14 00:12:48;;;;;;;9.32;3.00;;;;;;;14.05;90.89;101949.31;5058716;28;20441;-75
2022/06/14 00:15:15;;;;;;;13.00;3.53;;;;;;;14.04;92.29;101951.31;5059509;28;20131;-74
2022/06/14 00:17:41;;;;;;;10.82;2.90;;;;;;;14.05;92.02;101958.47;5052643;28;20060;-74
2022/06/14 00:20:08;;;;;;;9.77;3.10;;;;;;;14.02;91.39;101956.47;5054683;28;20320;-75
2022/06/14 00:22:35;;;;;;;10.38;3.00;;;;;;;13.95;91.88;101961.19;5056963;28;20071;-74
2022/06/14 00:25:01;;;;;;;10.40;3.28;;;;;;;13.90;92.45;101953.25;5062874;28;20532;-74
2022/06/14 00:27:28;;;;;;;9.35;3.10;;;;;;;13.91;93.64;101963.19;5060670;28;20059;-74
2022/06/14 00:29:54;;;;;;;7.22;3.10;;;;;;;13.86;94.42;101958.78;5050797;28;20055;-74
2022/06/14 00:32:21;;;;;;;11.85;3.20;;;;;;;13.83;94.90;101955.97;5053250;28;20047;-74
2022/06/14 00:34:48;;;;;;;9.77;2.90;;;;;;;13.80;94.69;101949.19;5051721;28;20063;-74
2022/06/14 00:37:18;;;;;;;5.95;2.78;;;;;;;13.75;94.35;101944.03;5060747;28;20051;-74
2022/06/14 00:39:45;;;;;;;10.52;2.90;;;;;;;13.75;94.33;101941.25;5055775;28;20084;-74
2022/06/14 00:42:22;;;;;;;11.65;3.33;;;;;;;13.68;95.02;101946.78;5060659;28;20045;-75
2022/06/14 00:45:27;;;;;;;12.00;3.53;;;;;;;13.69;97.27;101948.34;5054765;28;20139;-75
2022/06/14 00:48:04;;;;;;;8.20;2.70;;;;;;;13.72;97.99;101949.56;5057433;28;20653;-74
2022/06/14 00:50:38;;;;;;;9.95;3.05;;;;;;;13.70;96.88;101947.16;5051745;28;20051;-74
2022/06/14 00:53:13;;;;;;;8.13;3.25;;;;;;;13.68;96.33;101946.78;5054303;28;20151;-74
2022/06/14 00:55:45;;;;;;;7.85;2.85;;;;;;;13.65;95.69;101944.75;5055510;28;20497;-74
2022/06/14 00:58:16;;;;;;;10.02;3.35;;;;;;;13.64;95.64;101936.81;5054711;28;20048;-74
2022/06/14 01:00:51;;;;;;;14.10;3.92;;;;;;;13.63;95.73;101949.13;5051149;28;20128;-74
2022/06/14 01:03:23;;;;;;;8.05;2.90;;;;;;;13.60;95.54;101949.91;5060848;28;20501;-74
2022/06/14 01:06:07;;;;;;;10.02;3.03;;;;;;;13.54;95.98;101946.69;5059892;28;20045;-73
2022/06/14 01:08:45;;;;;;;9.30;3.45;;;;;;;13.47;97.71;101941.09;5071088;28;20047;-74
2022/06/14 01:11:20;;;;;;;9.60;3.08;;;;;;;13.46;96.68;101947.81;5076446;28;20059;-74
2022/06/14 01:13:47;;;;;;;12.05;3.38;;;;;;;13.38;97.29;101937.84;5075635;28;20135;-73
2022/06/14 01:16:14;;;;;;;11.93;3.53;;;;;;;13.34;97.71;101941.78;5072966;28;20126;-76
2022/06/14 01:18:41;;;;;;;11.68;3.33;;;;;;;13.30;98.98;101946.50;5073988;28;20114;-75
2022/06/14 01:21:07;;;;;;;7.70;3.13;;;;;;;13.23;98.04;101936.13;5080046;28;20417;-75
2022/06/14 01:23:34;;;;;;;11.88;3.17;;;;;;;13.23;99.55;101950.03;5081830;28;20060;-76
2022/06/14 01:26:15;;;;;;;10.07;3.35;;;;;;;13.20;100.00;101944.44;5078083;28;20081;-73
2022/06/14 01:28:48;;;;;;;7.85;3.20;;;;;;;13.15;100.00;101942.81;5081137;28;20062;-74
2022/06/14 01:31:17;;;;;;;10.00;3.90;;;;;;;13.17;100.00;101948.81;5081669;28;20046;-73
2022/06/14 01:33:48;;;;;;;8.55;3.13;;;;;;;13.14;100.00;101944.00;5078300;28;20083;-75
2022/06/14 01:36:24;;;;;;;7.57;2.85;;;;;;;13.13;100.00;101952.72;5055922;28;20041;-73
2022/06/14 01:38:51;;;;;;;9.20;3.20;;;;;;;13.07;100.00;101943.97;5057043;28;20141;-74
2022/06/14 01:41:20;;;;;;;9.10;3.25;;;;;;;13.04;100.00;101947.50;5057777;28;20041;-74
2022/06/14 01:44:21;;;;;;;9.10;2.97;;;;;;;13.02;100.00;101946.31;5052225;28;20172;-74
2022/06/14 01:47:06;;;;;;;11.23;3.35;;;;;;;12.98;100.00;101940.66;5052672;28;20057;-74
2022/06/14 01:52:30;;;;;;;8.48;3.22;;;;;;;12.93;100.00;101949.38;5055731;28;20132;-75
2022/06/14 01:55:20;;;;;;;13.10;3.47;;;;;;;12.93;100.00;101941.03;5066110;28;20851;-73
2022/06/14 01:58:00;;;;;;;13.30;3.55;;;;;;;12.91;100.00;101935.06;5064265;28;20583;-75
2022/06/14 02:00:41;;;;;;;9.02;3.13;;;;;;;12.86;100.00;101938.97;5058124;28;20080;-74
2022/06/14 02:06:24;;;;;;;13.23;3.30;;;;;;;12.73;100.00;101928.56;5057734;28;20497;-73
2022/06/14 02:08:58;;;;;;;13.13;3.33;;;;;;;12.80;100.00;101945.28;5065605;28;20059;-74
2022/06/14 02:11:32;;;;;;;8.93;3.08;;;;;;;12.80;100.00;101931.38;5050540;28;20595;-74
2022/06/14 02:14:10;;;;;;;8.90;3.55;;;;;;;12.80;100.00;101934.16;5061052;28;20070;-74
2022/06/14 02:16:40;;;;;;;11.80;3.38;;;;;;;12.79;100.00;101938.09;5062276;28;20055;-73
2022/06/14 02:19:17;;;;;;;9.55;3.67;;;;;;;12.80;100.00;101945.28;5063423;28;20052;-73
2022/06/14 02:21:57;;;;;;;7.68;3.15;;;;;;;12.80;100.00;101939.72;5056070;28;20446;-73
2022/06/14 02:24:29;;;;;;;8.73;3.55;;;;;;;12.85;100.00;101939.34;5057275;28;20133;-73
2022/06/14 02:27:16;;;;;;;12.80;3.60;;;;;;;12.83;100.00;101939.75;5063996;28;20062;-74
2022/06/14 02:29:52;;;;;;;10.30;4.22;;;;;;;12.85;100.00;101936.59;5061747;28;20419;-73
2022/06/14 02:32:36;;;;;;;10.07;3.40;;;;;;;12.85;100.00;101933.81;5057718;28;20048;-73
2022/06/14 02:35:17;;;;;;;11.75;3.30;;;;;;;12.86;100.00;101933.41;5063694;28;20049;-74
2022/06/14 02:38:04;;;;;;;8.00;3.60;;;;;;;12.85;100.00;101923.50;5054787;28;20061;-73
2022/06/14 02:40:46;;;;;;;11.68;4.05;;;;;;;12.88;100.00;101928.28;5060150;28;20049;-74
2022/06/14 02:43:37;;;;;;;12.77;3.45;;;;;;;12.91;100.00;101929.50;5056082;28;20411;-75
2022/06/14 02:46:12;;;;;;;8.35;3.28;;;;;;;12.92;100.00;101931.91;5064987;28;20071;-73
2022/06/14 02:48:59;;;;;;;12.93;3.60;;;;;;;12.95;100.00;101930.31;5050478;28;20161;-74
2022/06/14 02:51:29;;;;;;;6.57;2.92;;;;;;;12.95;100.00;101924.75;5062364;28;20120;-73
2022/06/14 02:54:26;;;;;;;10.07;3.20;;;;;;;12.89;100.00;101923.50;5058877;28;20054;-74
2022/06/14 02:57:07;;;;;;;12.48;3.80;;;;;;;12.84;100.00;101921.91;5056405;28;20052;-74
2022/06/14 02:59:49;;;;;;;10.13;3.60;;;;;;;12.89;100.00;101926.28;5064118;28;20065;-75
2022/06/14 03:02:42;;;;;;;8.68;3.63;;;;;;;12.89;100.00;101926.28;5059383;28;20544;-74
2022/06/14 03:05:38;;;;;;;7.97;3.05;;;;;;;12.89;100.00;101926.28;5053131;28;20047;-73
2022/06/14 03:08:30;;;;;;;10.85;3.20;;;;;;;12.92;100.00;101931.09;5052359;28;20044;-74
2022/06/14 03:11:06;;;;;;;13.13;3.85;;;;;;;12.91;100.00;101923.94;5064104;28;20051;-74
2022/06/14 03:14:14;;;;;;;11.65;3.75;;;;;;;12.84;100.00;101930.25;5055537;28;20402;-75
2022/06/14 03:17:11;;;;;;;9.13;3.30;;;;;;;12.81;100.00;101931.00;5057759;28;20058;-74
2022/06/14 03:19:49;;;;;;;8.68;3.13;;;;;;;12.78;100.00;101936.50;5058994;28;20143;-75
2022/06/14 03:22:19;;;;;;;11.73;3.78;;;;;;;12.76;100.00;101938.91;5056682;28;20409;-73
2022/06/14 03:25:06;;;;;;;8.52;3.28;;;;;;;12.69;100.00;101936.84;5053385;28;20130;-74
2022/06/14 03:27:41;;;;;;;9.90;3.65;;;;;;;12.68;100.00;101940.81;5059241;28;20051;-73
2022/06/14 03:30:21;;;;;;;9.43;3.03;;;;;;;12.64;100.00;101928.88;5063914;28;20049;-73
2022/06/14 03:33:06;;;;;;;8.50;3.33;;;;;;;12.61;100.00;101931.59;5055521;28;20116;-74
2022/06/14 03:35:42;;;;;;;14.93;4.05;;;;;;;12.57;100.00;101926.03;5049604;28;20056;-73
2022/06/14 03:38:41;;;;;;;8.32;3.13;;;;;;;12.56;100.00;101929.19;5048058;28;20056;-74
2022/06/14 03:41:11;;;;;;;6.95;3.08;;;;;;;12.57;100.00;101928.81;5050311;28;20047;-74
2022/06/14 03:43:39;;;;;;;9.52;3.33;;;;;;;12.57;100.00;101916.88;5061569;28;20485;-74
2022/06/14 03:46:21;;;;;;;9.82;3.58;;;;;;;12.58;100.00;101924.03;5064888;28;20572;-73
2022/06/14 03:48:51;;;;;;;12.50;3.70;;;;;;;12.58;100.00;101930.38;5059162;28;20494;-74
2022/06/14 03:51:31;;;;;;;7.20;3.15;;;;;;;12.54;100.00;101921.22;5053725;28;20076;-74
2022/06/14 03:54:03;;;;;;;8.43;3.20;;;;;;;12.56;100.00;101926.41;5066862;28;20106;-74
2022/06/14 03:56:30;;;;;;;9.90;3.25;;;;;;;12.54;100.00;101928.75;5058733;28;20123;-74
2022/06/14 03:58:59;;;;;;;9.02;3.67;;;;;;;12.47;100.00;101929.50;5056919;28;20498;-73
2022/06/14 04:01:41;;;;;;;8.23;3.40;;;;;;;12.43;100.00;101919.53;5058179;28;20567;-74
2022/06/14 04:04:40;;;;;;;11.80;3.53;;;;;;;12.49;100.00;101929.09;5058487;28;20135;-74
2022/06/14 04:07:19;;;;;;;9.60;3.55;;;;;;;12.53;100.00;101929.94;5049167;28;20687;-75
2022/06/14 04:10:04;;;;;;;9.05;3.17;;;;;;;12.59;100.00;101925.66;5058832;28;20112;-74
2022/06/14 04:12:38;;;;;;;11.10;3.60;;;;;;;12.66;100.00;101920.16;5059948;28;20230;-73
2022/06/14 04:15:13;;;;;;;11.20;4.20;;;;;;;12.67;100.00;101930.06;5053226;28;20049;-75
2022/06/14 04:18:38;;;;;;;7.60;3.65;;;;;;;12.72;100.00;101921.38;5055142;28;20532;-74
2022/06/14 04:21:14;;;;;;;6.97;3.33;;;;;;;12.74;100.00;101925.41;5050977;28;20056;-73
2022/06/14 04:24:00;;;;;;;;;;;;;;;12.70;100.00;101918.97;5052214;28;20488;-75
2022/06/14 04:26:30;;;;;;;;;;;;;;;12.72;100.00;101922.19;5055671;28;19921;-74
2022/06/14 04:29:00;;;;;;;9.85;3.90;;;;;;;12.78;100.00;101917.88;5048297;28;19924;-75
2022/06/14 04:31:32;;;;;;;14.73;4.35;;;;;;;12.86;100.00;101915.97;5051719;28;20072;-74
2022/06/14 04:34:12;;;;;;;8.32;3.75;;;;;;;12.90;100.00;101911.25;5060954;28;20048;-74
2022/06/14 04:37:15;;;;;;;13.85;5.80;;;;;;;12.95;100.00;101917.25;5060193;28;20135;-74
2022/06/14 04:39:47;;;;;;;13.82;4.85;;;;;;;12.99;100.00;101915.31;5033295;28;20108;-73
2022/06/14 04:42:28;;;;;;;15.18;5.50;;;;;;;13.00;100.00;101916.91;5054055;28;20139;-75
2022/06/14 04:45:04;;;;;;;11.90;5.22;;;;;;;12.97;100.00;101920.41;5058420;28;20061;-73
2022/06/14 04:47:37;;;;;;;13.27;4.68;;;;;;;12.95;100.00;101908.09;5058403;28;20048;-74
2022/06/14 04:50:14;;;;;;;13.85;5.78;;;;;;;12.96;100.00;101910.50;5057925;28;20124;-74
2022/06/14 04:52:54;;;;;;;15.55;5.45;;;;;;;12.92;100.00;101920.78;5056845;28;20049;-73
2022/06/14 04:55:35;;;;;;;17.75;6.45;;;;;;;12.90;100.00;101911.25;5063015;28;20236;-73
2022/06/14 04:58:24;;;;;;;14.32;6.10;;;;;;;12.89;100.00;101910.44;5052689;28;20052;-74
2022/06/14 05:00:56;;;;;;;18.42;6.18;;;;;;;12.89;100.00;101923.50;5054338;28;20041;-75
2022/06/14 05:03:32;;;;;;;16.73;5.95;;;;;;;12.89;100.00;101920.72;5056429;28;20068;-74
2022/06/14 05:06:15;;;;;;;16.55;6.03;;;;;;;12.97;100.00;101917.63;5055929;28;20690;-74
2022/06/14 05:08:52;;;;;;;18.17;7.50;;;;;;;13.10;100.00;101915.41;5058314;28;20052;-74
2022/06/14 05:11:25;;;;;;;16.73;7.05;;;;;;;13.22;100.00;101919.88;5054719;28;20140;-74
2022/06/14 05:14:26;;;;;;;17.13;7.03;;;;;;;13.23;100.00;101919.44;5056804;28;20057;-76
2022/06/14 05:16:59;;;;;;;21.80;7.10;;;;;;;13.37;100.00;101918.75;5058907;28;20780;-73
2022/06/14 05:19:34;;;;;;;23.63;8.77;;;;;;;13.44;100.00;101918.81;5058063;28;20429;-77
2022/06/14 05:22:34;;;;;;;17.42;6.88;;;;;;;13.58;100.00;101919.69;5051385;28;20068;-75
2022/06/14 05:25:04;;;;;;;19.83;6.55;;;;;;;13.66;100.00;101926.06;5038528;28;20135;-74
2022/06/14 05:27:46;;;;;;;18.20;7.07;;;;;;;13.72;100.00;101935.66;5057476;28;20047;-76
2022/06/14 05:31:00;;;;;;;21.23;7.32;;;;;;;13.83;100.00;101931.72;5059418;28;20048;-75
2022/06/14 05:34:05;;;;;;;22.00;7.13;;;;;;;13.95;100.00;101933.38;5043929;28;20124;-75
2022/06/14 05:36:38;;;;;;;17.92;6.68;;;;;;;13.95;100.00;101934.19;5059085;28;20044;-74
2022/06/14 05:39:23;;;;;;;20.85;7.50;;;;;;;14.01;100.00;101940.16;5066354;28;20072;-75
2022/06/14 05:42:00;;;;;;;17.05;6.40;;;;;;;14.07;100.00;101944.97;5058805;28;20480;-75
2022/06/14 05:44:35;;;;;;;20.30;6.97;;;;;;;14.22;100.00;101945.81;5062965;28;20048;-75
2022/06/14 05:47:25;;;;;;;16.85;6.47;;;;;;;14.32;100.00;101947.88;5056272;28;20128;-74
2022/06/14 05:49:59;;;;;;;17.30;6.72;;;;;;;14.42;100.00;101958.25;5060744;28;20145;-73
2022/06/14 05:52:58;;;;;;;21.85;7.22;;;;;;;14.50;100.00;101952.28;5061346;28;20041;-73
2022/06/14 05:55:38;;;;;;;16.65;6.88;;;;;;;14.66;100.00;101954.72;5050727;28;20075;-74
2022/06/14 05:58:13;;;;;;;20.27;7.38;;;;;;;14.74;100.00;101954.34;5059162;28;20163;-73
2022/06/14 06:00:46;;;;;;;21.65;7.78;;;;;;;14.85;100.00;101954.34;5059855;28;20048;-73
2022/06/14 06:03:48;;;;;;;24.52;7.70;;;;;;;14.98;100.00;101959.13;5056746;28;20052;-74
2022/06/14 06:06:28;;;;;;;17.30;6.78;;;;;;;15.19;100.00;101955.56;5051767;28;20135;-74
2022/06/14 06:09:04;;;;;;;22.45;7.30;;;;;;;15.38;100.00;101958.75;5054758;28;20575;-74
2022/06/14 06:11:36;;;;;;;17.95;6.00;;;;;;;15.53;100.00;101954.72;5065722;28;20045;-75
2022/06/14 06:14:30;;;;;;;17.15;6.85;;;;;;;15.68;100.00;101961.09;5060945;28;20071;-73
2022/06/14 06:17:05;;;;;;;19.13;7.20;;;;;;;15.74;100.00;101955.88;5065179;28;20148;-74
2022/06/14 06:19:32;;;;;;;;;;;;;;;15.83;99.93;101959.84;5057073;28;20213;-74
2022/06/14 06:22:06;;;;;;;16.10;6.07;;;;;;;15.91;99.40;101955.84;5060897;28;19932;-71
2022/06/14 06:24:57;;;;;;;17.35;5.93;;;;;;;15.94;99.14;101966.22;5058992;28;20052;-71
2022/06/14 06:27:32;;;;;;;19.23;6.18;;;;;;;16.04;96.96;101962.59;5061511;28;20059;-71
2022/06/14 06:30:03;;;;;;;18.17;6.22;;;;;;;16.11;96.39;101970.13;5056654;28;20049;-72
2022/06/14 06:32:33;;;;;;;17.33;5.50;;;;;;;16.17;96.35;101968.50;5061777;28;20118;-73
2022/06/14 06:35:02;;;;;;;18.80;5.10;;;;;;;16.28;95.19;101958.88;5055443;28;20051;-71
2022/06/14 06:37:38;;;;;;;21.38;7.10;;;;;;;16.36;94.08;101965.22;5057175;28;20141;-72
2022/06/14 06:40:19;;;;;;;16.98;5.05;;;;;;;16.40;92.97;101963.22;5059585;28;20096;-73
2022/06/14 06:42:53;;;;;;;19.95;5.72;;;;;;;16.42;91.82;101974.75;5059746;28;20097;-71
2022/06/14 06:45:43;;;;;;;14.95;3.92;;;;;;;16.43;90.87;101959.66;5051097;28;20259;-71
2022/06/14 06:48:19;;;;;;;12.52;3.22;;;;;;;16.58;89.12;101978.72;5058951;28;20052;-67
2022/06/14 06:50:47;;;;;;;16.95;3.90;;;;;;;16.60;88.33;101981.09;5055607;28;20052;-71
2022/06/14 06:53:16;;;;;;;17.73;3.90;;;;;;;16.51;87.41;101973.16;5059925;28;20068;-72
2022/06/14 06:55:50;;;;;;;13.90;3.00;;;;;;;16.55;87.17;101973.94;5060707;28;20172;-71
2022/06/14 06:58:32;;;;;;;12.35;3.65;;;;;;;16.64;85.99;101974.25;5058888;28;20045;-71
2022/06/14 07:01:04;;;;;;;14.32;3.85;;;;;;;16.71;84.49;101973.44;5056563;28;20052;-70
2022/06/14 07:03:30;;;;;;;13.98;3.25;;;;;;;16.73;83.52;101974.63;5060011;28;20071;-72
2022/06/14 07:06:02;;;;;;;12.90;3.40;;;;;;;16.80;84.37;101974.56;5058501;28;20048;-72
2022/06/14 07:08:52;;;;;;;17.45;3.00;;;;;;;16.92;84.26;101974.09;5057304;28;20528;-71
2022/06/14 07:11:23;;;;;;;11.90;2.88;;;;;;;17.05;83.23;101974.41;5060087;28;20138;-71
2022/06/14 07:13:52;;;;;;;9.52;3.08;;;;;;;17.13;83.57;101971.13;5057572;28;20102;-72
2022/06/14 07:16:37;;;;;;;18.80;3.88;;;;;;;17.20;82.57;101971.06;5056065;28;20041;-71
2022/06/14 07:19:22;;;;;;;13.43;3.38;;;;;;;17.28;81.70;101971.81;5059417;28;20060;-72
2022/06/14 07:21:59;;;;;;;15.75;2.90;;;;;;;17.20;80.19;101975.88;5058301;28;20083;-71
2022/06/14 07:24:33;;;;;;;17.65;3.38;;;;;;;17.32;79.85;101973.34;5054503;28;20144;-72
2022/06/14 07:27:24;;;;;;;16.08;3.28;;;;;;;17.48;79.24;101976.44;5057737;28;20516;-72
2022/06/14 07:30:06;;;;;;;13.25;2.97;;;;;;;17.58;78.25;101974.72;5056050;28;20080;-70
2022/06/14 07:32:43;;;;;;;14.07;3.35;;;;;;;17.66;76.88;101977.03;5057804;28;20091;-71
2022/06/14 07:35:10;;;;;;;14.85;2.83;;;;;;;17.71;75.60;101973.00;5048421;28;20045;-73
2022/06/14 07:37:52;;;;;;;14.68;3.35;;;;;;;17.82;75.58;101968.88;5066512;28;20056;-71
2022/06/14 07:40:50;;;;;;;7.93;2.55;;;;;;;17.85;74.46;101967.25;5057743;28;20056;-71
2022/06/14 07:43:32;;;;;;;15.27;2.90;;;;;;;17.91;73.25;101963.59;5057549;28;20051;-74
2022/06/14 07:46:04;;;;;;;16.95;3.35;;;;;;;18.02;74.11;101963.44;5063602;28;20051;-72
2022/06/14 07:48:31;;;;;;;15.38;3.30;;;;;;;18.23;72.93;101960.41;5060118;28;20048;-71
2022/06/14 07:51:04;;;;;;;12.85;4.10;;;;;;;18.34;71.89;101963.06;5053785;28;20512;-71
2022/06/14 07:53:45;;;;;;;13.88;3.15;;;;;;;18.40;72.07;101970.63;5055826;28;20041;-73
2022/06/14 07:56:45;;;;;;;11.55;2.85;;;;;;;18.51;72.05;101968.47;5055081;28;20052;-72
2022/06/14 07:59:16;;;;;;;16.83;3.95;;;;;;;18.67;70.32;101968.63;5051202;28;20122;-73
2022/06/14 08:02:07;;;;;;;11.48;3.88;;;;;;;18.68;68.50;101961.81;5052026;28;20049;-74
2022/06/14 08:04:45;;;;;;;11.88;3.70;;;;;;;18.80;68.94;101966.03;5056248;28;20988;-73
2022/06/14 08:07:18;;;;;;;18.20;4.47;;;;;;;18.66;67.05;101964.22;5058399;28;20048;-72
2022/06/14 08:09:48;;;;;;;13.40;4.80;;;;;;;18.71;68.14;101958.16;5057801;28;20132;-72
2022/06/14 08:12:32;;;;;;;16.67;3.70;;;;;;;18.68;66.94;101959.00;5053961;28;20548;-74
2022/06/14 08:15:08;;;;;;;15.87;4.93;;;;;;;18.88;67.76;101954.28;5056267;28;20106;-72
2022/06/14 08:17:50;;;;;;;18.60;5.65;;;;;;;19.02;66.22;101956.88;5055874;28;20139;-72
2022/06/14 08:20:39;;;;;;;16.92;4.28;;;;;;;18.69;61.85;101954.97;5057984;28;20048;-74
2022/06/14 08:23:15;;;;;;;17.15;4.40;;;;;;;18.56;64.58;101951.16;5057139;28;20519;-71
2022/06/14 08:25:46;;;;;;;18.92;5.32;;;;;;;18.73;65.97;101952.13;5059399;28;20058;-73
2022/06/14 08:28:20;;;;;;;24.65;6.05;;;;;;;18.75;64.93;101953.28;5059373;28;20084;-72
2022/06/14 08:30:58;;;;;;;13.93;5.30;;;;;;;18.59;64.94;101941.91;5057795;28;20048;-72
2022/06/14 08:33:51;;;;;;;17.25;5.10;;;;;;;18.58;66.69;101945.94;5055016;28;20068;-73
2022/06/14 08:36:25;;;;;;;17.25;6.03;;;;;;;18.63;68.04;101937.03;5053376;28;20041;-73
2022/06/14 08:38:57;;;;;;;20.20;6.47;;;;;;;18.73;67.58;101946.53;5050576;28;20051;-73
2022/06/14 08:41:44;;;;;;;18.13;5.97;;;;;;;18.80;66.23;101938.78;5055573;28;20135;-75
2022/06/14 08:44:21;;;;;;;21.00;6.28;;;;;;;18.90;66.69;101942.66;5060183;28;20129;-74
2022/06/14 08:47:12;;;;;;;12.10;4.95;;;;;;;18.57;65.14;101949.97;5056349;28;20517;-72
2022/06/14 08:50:11;;;;;;;16.50;5.05;;;;;;;18.13;65.93;101947.31;5051837;28;20477;-72
2022/06/14 08:53:22;;;;;;;18.05;6.18;;;;;;;18.27;67.44;101955.56;5040048;28;20049;-74
2022/06/14 08:56:14;;;;;;;15.25;6.05;;;;;;;18.53;66.76;101942.81;5054182;28;20060;-72
2022/06/14 08:58:44;;;;;;;17.10;6.10;;;;;;;18.77;65.05;101944.44;5054028;28;20098;-74
2022/06/14 09:01:35;;;;;;;18.38;5.93;;;;;;;18.91;63.44;101952.63;5060122;28;20148;-73
2022/06/14 09:04:10;;;;;;;17.15;6.00;;;;;;;19.05;63.62;101949.59;5055536;28;20045;-72
2022/06/14 09:06:45;;;;;;;;;;;;;;;19.30;61.88;101947.22;5059628;28;20045;-72
2022/06/14 09:09:34;;;;;;;16.65;6.40;;;;;;;19.56;58.73;101935.91;5058905;28;20265;-71
2022/06/14 09:12:12;;;;;;;14.52;6.05;;;;;;;19.84;59.69;101931.72;5061287;28;20047;-73
2022/06/14 09:15:02;;;;;;;18.83;6.32;;;;;;;19.98;56.48;101929.44;5058249;28;20140;-75
2022/06/14 09:17:47;;;;;;;15.68;5.22;;;;;;;19.42;53.56;101940.97;5041792;28;20059;-74
2022/06/14 09:20:38;;;;;;;15.27;5.30;;;;;;;19.25;55.31;101948.50;5049724;28;20049;-74
2022/06/14 09:23:18;;;;;;;10.20;4.53;;;;;;;19.27;54.79;101942.47;5060893;28;20042;-73
2022/06/14 09:26:23;;;;;;;20.13;5.43;;;;;;;19.32;53.65;101939.94;5060697;28;20164;-72
2022/06/14 09:29:08;;;;;;;14.82;5.38;;;;;;;19.45;54.92;101938.13;5056781;28;20491;-73
2022/06/14 09:32:02;;;;;;;11.63;5.55;;;;;;;19.74;55.46;101933.53;5059863;28;20092;-69
2022/06/14 09:34:31;;;;;;;14.18;5.05;;;;;;;19.94;54.48;101933.53;5056258;28;20515;-73
2022/06/14 09:37:46;;;;;;;11.70;5.25;;;;;;;20.10;52.78;101928.00;5061543;28;20044;-72
2022/06/14 09:40:28;;;;;;;13.60;5.15;;;;;;;20.25;53.63;101932.91;5047278;28;20168;-74
2022/06/14 09:43:05;;;;;;;10.75;4.47;;;;;;;20.04;51.95;101938.94;5061500;28;20049;-72
2022/06/14 09:45:38;;;;;;;16.75;5.65;;;;;;;20.25;52.49;101940.56;5057790;28;20095;-73
2022/06/14 09:48:18;;;;;;;16.08;5.53;;;;;;;20.21;51.75;101937.00;5053364;28;20124;-72
2022/06/14 09:50:59;;;;;;;12.20;4.90;;;;;;;20.11;51.71;101943.63;5063051;28;20123;-73
2022/06/14 09:53:44;;;;;;;14.43;5.82;;;;;;;19.99;51.40;101941.47;5064563;28;20045;-73
2022/06/14 09:56:22;;;;;;;18.00;5.28;;;;;;;20.21;51.85;101943.44;5055899;28;20048;-72
2022/06/14 09:59:31;;;;;;;16.40;5.30;;;;;;;20.33;51.46;101945.59;5066918;28;20506;-71
2022/06/14 10:02:00;;;;;;;15.27;5.25;;;;;;;20.66;51.33;101934.41;5041743;28;20131;-74
2022/06/14 10:05:09;;;;;;;17.25;5.45;;;;;;;20.73;49.86;101943.47;5059596;28;20130;-73
2022/06/14 10:07:54;;;;;;;16.20;5.78;;;;;;;20.82;52.08;101942.88;5058510;28;20056;-73
2022/06/14 10:10:51;;;;;;;11.13;4.20;;;;;;;21.12;50.84;101934.88;5048985;28;20049;-72
2022/06/14 10:13:51;;;;;;;13.70;4.80;;;;;;;21.22;48.47;101921.75;5053507;28;20778;-72
2022/06/14 10:16:35;;;;;;;15.95;4.90;;;;;;;21.34;48.64;101921.84;5057140;28;20135;-73
2022/06/14 10:19:20;;;;;;;20.00;4.93;;;;;;;21.40;49.78;101928.50;5055706;28;20132;-73
2022/06/14 10:22:16;;;;;;;13.33;4.50;;;;;;;21.61;48.56;101929.97;5056608;28;20059;-74
2022/06/14 10:25:10;;;;;;;;;;;;;;;21.80;47.60;101918.59;5047074;28;20071;-73
2022/06/14 10:28:22;;;;;;;12.25;4.85;;;;;;;22.07;46.88;101924.63;5048162;28;19951;-73
2022/06/14 10:31:05;;;;;;;13.70;4.38;;;;;;;22.43;47.03;101913.06;5027003;28;20049;-72
2022/06/14 10:33:48;;;;;;;19.08;4.68;;;;;;;22.67;47.37;101922.81;5048198;28;20044;-73
2022/06/14 10:36:39;;;;;;;14.38;4.70;;;;;;;22.79;45.31;101914.34;5041723;28;20513;-73
2022/06/14 10:39:37;;;;;;;11.38;4.60;;;;;;;22.69;45.04;101901.38;5029164;28;20132;-72
2022/06/14 10:42:22;;;;;;;11.75;4.10;;;;;;;22.53;44.73;101901.50;5045079;28;20314;-73
2022/06/14 10:45:07;;;;;;;10.60;4.43;;;;;;;22.47;44.76;101900.44;5025657;28;20132;-73
2022/06/14 10:47:46;;;;;;;14.73;5.38;;;;;;;21.96;44.90;101895.97;5047989;28;20155;-72
2022/06/14 10:50:57;;;;;;;13.98;4.78;;;;;;;21.74;45.78;101891.41;5034673;28;20129;-73
2022/06/14 10:53:31;;;;;;;12.82;4.53;;;;;;;21.93;44.59;101882.78;5014216;28;21074;-74
2022/06/14 10:56:31;;;;;;;11.27;5.88;;;;;;;22.23;45.11;101884.28;5048140;28;20076;-73
2022/06/14 10:59:29;;;;;;;13.93;4.57;;;;;;;22.56;43.54;101882.88;5030431;28;20091;-73
2022/06/14 11:02:01;;;;;;;10.93;4.80;;;;;;;22.50;44.11;101874.19;5045121;28;20416;-72
2022/06/14 11:04:48;;;;;;;12.23;4.63;;;;;;;22.24;43.31;101869.75;5065882;28;20055;-73
2022/06/14 11:07:34;;;;;;;16.35;4.38;;;;;;;22.22;43.01;101865.81;5061781;28;20054;-72
2022/06/14 11:10:32;;;;;;;17.55;4.57;;;;;;;22.50;43.77;101859.28;5054558;28;20071;-72
2022/06/14 11:13:17;;;;;;;12.55;4.70;;;;;;;22.82;43.67;101853.41;5061823;28;20145;-75
2022/06/14 11:16:07;;;;;;;13.75;5.05;;;;;;;23.10;43.02;101851.63;5059680;28;20064;-72
2022/06/14 11:19:06;;;;;;;13.10;4.53;;;;;;;23.47;41.67;101857.19;5050849;28;20080;-73
2022/06/14 11:21:42;;;;;;;11.40;4.63;;;;;;;23.58;41.86;101846.25;5055499;28;20102;-73
2022/06/14 11:24:35;;;;;;;11.27;4.53;;;;;;;23.85;42.20;101846.44;5061619;28;20041;-73
2022/06/14 11:27:01;;;;;;;14.50;4.43;;;;;;;24.01;41.60;101845.47;5056728;28;20118;-70
2022/06/14 11:29:42;;;;;;;14.70;4.20;;;;;;;24.17;40.47;101831.88;5063417;28;20143;-72
2022/06/14 11:32:27;;;;;;;12.68;4.40;;;;;;;24.53;41.08;101829.19;5057947;28;20408;-71
2022/06/14 11:35:09;;;;;;;17.08;4.80;;;;;;;24.94;39.44;101836.41;5052000;28;20144;-71
2022/06/14 11:37:39;;;;;;;14.05;4.85;;;;;;;25.14;38.48;101834.69;5061913;28;20057;-72
2022/06/14 11:40:24;;;;;;;7.97;3.88;;;;;;;25.49;37.31;101832.38;5052729;28;20041;-74
2022/06/14 11:43:06;;;;;;;14.38;4.68;;;;;;;25.93;38.36;101832.75;5068038;28;20139;-76
2022/06/14 11:45:48;;;;;;;12.98;4.47;;;;;;;26.38;36.71;101829.75;5060317;28;20063;-75
2022/06/14 11:48:20;;;;;;;11.50;3.67;;;;;;;26.82;37.63;101833.66;5059138;28;20044;-75
2022/06/14 11:51:01;;;;;;;15.15;3.70;;;;;;;27.27;36.51;101824.84;5051019;28;20128;-75
2022/06/14 11:53:36;;;;;;;12.77;3.95;;;;;;;27.62;34.94;101827.81;5062065;28;20114;-75
2022/06/14 11:56:07;;;;;;;11.75;4.10;;;;;;;27.63;35.11;101823.72;5065434;28;20118;-77
2022/06/14 11:59:03;;;;;;;12.82;3.83;;;;;;;27.90;32.76;101824.22;5055338;28;20048;-75
2022/06/14 12:01:57;;;;;;;13.57;3.53;;;;;;;27.75;32.11;101814.91;5053396;28;20850;-78
2022/06/14 12:04:31;;;;;;;13.43;3.80;;;;;;;28.07;33.98;101813.91;5059380;28;20053;-76
2022/06/14 12:07:23;;;;;;;10.23;3.20;;;;;;;28.62;32.03;101817.63;5061555;28;20048;-75
2022/06/14 12:10:34;;;;;;;17.50;3.80;;;;;;;28.83;31.69;101802.16;5061787;28;20044;-77
2022/06/14 12:13:13;;;;;;;10.27;3.55;;;;;;;28.55;31.26;101805.91;5055716;28;20073;-76
2022/06/14 12:16:10;;;;;;;11.10;3.90;;;;;;;28.23;31.66;101795.53;5062612;28;20064;-75
2022/06/14 12:18:44;;;;;;;14.27;3.83;;;;;;;29.09;31.48;101794.47;5054649;28;20052;-75
2022/06/14 12:21:43;;;;;;;11.98;3.10;;;;;;;29.77;31.12;101785.34;5054276;28;20059;-75
2022/06/14 12:24:17;;;;;;;12.77;3.28;;;;;;;30.22;30.57;101793.00;5055288;28;20045;-74
2022/06/14 12:26:59;;;;;;;8.45;2.95;;;;;;;30.53;27.95;101792.94;5058253;28;20057;-77